sensor_id;sensor_type;location;lat;lon;timestamp;P1;durP1;ratioP1;P2;durP2;ratioP2
21432;SDS011;18592;49.708;10.900;2023-04-01T00:01:59;3.05;;;0.80;;
21432;SDS011;18592;49.708;10.900;2023-04-01T00:04:02;1.58;;;0.60;;
21432;SDS011;18592;49.708;10.900;2023-04-01T00:06:04;4.22;;;0.80;;
21432;SDS011;18592;49.708;10.900;2023-04-01T00:08:06;1.95;;;0.57;;
21432;SDS011;18592;49.708;10.900;2023-04-01T00:10:08;1.73;;;0.60;;
21432;SDS011;18592;49.708;10.900;2023-04-01T00:12:12;0.85;;;0.65;;
21432;SDS011;18592;49.708;10.900;2023-04-01T00:14:16;1.65;;;0.55;;
21432;SDS011;18592;49.708;10.900;2023-04-01T00:16:18;1.92;;;0.50;;
21432;SDS011;18592;49.708;10.900;2023-04-01T00:18:23;1.27;;;0.60;;
21432;SDS011;18592;49.708;10.900;2023-04-01T00:20:25;2.67;;;0.82;;
21432;SDS011;18592;49.708;10.900;2023-04-01T00:22:28;2.25;;;0.82;;
21432;SDS011;18592;49.708;10.900;2023-04-01T00:24:29;1.88;;;0.70;;
21432;SDS011;18592;49.708;10.900;2023-04-01T00:26:31;2.38;;;0.80;;
21432;SDS011;18592;49.708;10.900;2023-04-01T00:28:33;1.83;;;0.80;;
21432;SDS011;18592;49.708;10.900;2023-04-01T00:30:39;1.35;;;0.68;;
21432;SDS011;18592;49.708;10.900;2023-04-01T00:32:42;3.53;;;0.82;;
21432;SDS011;18592;49.708;10.900;2023-04-01T00:34:43;1.92;;;0.63;;
21432;SDS011;18592;49.708;10.900;2023-04-01T00:36:51;4.05;;;1.02;;
21432;SDS011;18592;49.708;10.900;2023-04-01T00:38:53;2.42;;;1.15;;
21432;SDS011;18592;49.708;10.900;2023-04-01T00:40:57;1.67;;;0.70;;
21432;SDS011;18592;49.708;10.900;2023-04-01T00:42:59;1.50;;;0.75;;
21432;SDS011;18592;49.708;10.900;2023-04-01T00:45:21;1.90;;;0.70;;
21432;SDS011;18592;49.708;10.900;2023-04-01T00:47:27;2.95;;;0.60;;
21432;SDS011;18592;49.708;10.900;2023-04-01T00:49:30;2.03;;;0.80;;
21432;SDS011;18592;49.708;10.900;2023-04-01T00:51:39;2.75;;;0.90;;
21432;SDS011;18592;49.708;10.900;2023-04-01T00:53:46;1.58;;;0.70;;
21432;SDS011;18592;49.708;10.900;2023-04-01T00:55:51;1.08;;;0.63;;
21432;SDS011;18592;49.708;10.900;2023-04-01T00:57:58;1.95;;;0.65;;
21432;SDS011;18592;49.708;10.900;2023-04-01T01:00:06;2.97;;;0.90;;
21432;SDS011;18592;49.708;10.900;2023-04-01T01:02:13;1.75;;;0.70;;
21432;SDS011;18592;49.708;10.900;2023-04-01T01:04:29;2.40;;;0.70;;
21432;SDS011;18592;49.708;10.900;2023-04-01T01:06:39;2.28;;;0.68;;
21432;SDS011;18592;49.708;10.900;2023-04-01T01:09:06;1.73;;;0.60;;
21432;SDS011;18592;49.708;10.900;2023-04-01T01:11:14;1.85;;;0.60;;
21432;SDS011;18592;49.708;10.900;2023-04-01T01:15:26;1.90;;;0.60;;
21432;SDS011;18592;49.708;10.900;2023-04-01T01:22:52;1.77;;;0.70;;
21432;SDS011;18592;49.708;10.900;2023-04-01T01:25:25;2.67;;;0.88;;
21432;SDS011;18592;49.708;10.900;2023-04-01T01:27:41;2.15;;;0.70;;
21432;SDS011;18592;49.708;10.900;2023-04-01T01:37:05;1.83;;;0.60;;
21432;SDS011;18592;49.708;10.900;2023-04-01T01:39:12;1.77;;;0.60;;
21432;SDS011;18592;49.708;10.900;2023-04-01T01:41:15;2.17;;;0.88;;
21432;SDS011;18592;49.708;10.900;2023-04-01T01:43:29;1.88;;;0.57;;
21432;SDS011;18592;49.708;10.900;2023-04-01T01:45:34;1.92;;;0.60;;
21432;SDS011;18592;49.708;10.900;2023-04-01T01:47:42;1.65;;;0.50;;
21432;SDS011;18592;49.708;10.900;2023-04-01T01:49:45;2.35;;;0.60;;
21432;SDS011;18592;49.708;10.900;2023-04-01T01:51:47;2.10;;;0.80;;
21432;SDS011;18592;49.708;10.900;2023-04-01T01:53:49;1.63;;;0.57;;
21432;SDS011;18592;49.708;10.900;2023-04-01T01:55:53;1.27;;;0.50;;
21432;SDS011;18592;49.708;10.900;2023-04-01T01:57:56;1.60;;;0.73;;
21432;SDS011;18592;49.708;10.900;2023-04-01T02:00:09;1.60;;;0.70;;
21432;SDS011;18592;49.708;10.900;2023-04-01T02:02:18;1.23;;;0.60;;
21432;SDS011;18592;49.708;10.900;2023-04-01T02:04:26;1.52;;;0.50;;
21432;SDS011;18592;49.708;10.900;2023-04-01T02:06:30;2.35;;;0.60;;
21432;SDS011;18592;49.708;10.900;2023-04-01T02:08:39;2.13;;;0.60;;
21432;SDS011;18592;49.708;10.900;2023-04-01T02:10:49;1.88;;;0.60;;
21432;SDS011;18592;49.708;10.900;2023-04-01T02:13:05;1.40;;;0.60;;
21432;SDS011;18592;49.708;10.900;2023-04-01T02:15:18;2.30;;;0.50;;
21432;SDS011;18592;49.708;10.900;2023-04-01T02:17:26;1.58;;;0.50;;
21432;SDS011;18592;49.708;10.900;2023-04-01T02:19:36;1.42;;;0.50;;
21432;SDS011;18592;49.708;10.900;2023-04-01T02:21:40;2.00;;;0.73;;
21432;SDS011;18592;49.708;10.900;2023-04-01T02:23:45;3.10;;;0.80;;
21432;SDS011;18592;49.708;10.900;2023-04-01T02:25:48;1.25;;;0.45;;
21432;SDS011;18592;49.708;10.900;2023-04-01T02:27:52;1.90;;;0.65;;
21432;SDS011;18592;49.708;10.900;2023-04-01T02:29:56;1.95;;;0.55;;
21432;SDS011;18592;49.708;10.900;2023-04-01T02:31:59;1.85;;;0.57;;
21432;SDS011;18592;49.708;10.900;2023-04-01T02:34:01;1.75;;;0.68;;
21432;SDS011;18592;49.708;10.900;2023-04-01T02:36:05;2.15;;;0.73;;
21432;SDS011;18592;49.708;10.900;2023-04-01T02:38:07;3.75;;;0.75;;
21432;SDS011;18592;49.708;10.900;2023-04-01T02:40:10;2.60;;;0.90;;
21432;SDS011;18592;49.708;10.900;2023-04-01T02:42:14;1.55;;;0.60;;
21432;SDS011;18592;49.708;10.900;2023-04-01T02:44:15;3.75;;;0.70;;
21432;SDS011;18592;49.708;10.900;2023-04-01T02:46:18;1.30;;;0.60;;
21432;SDS011;18592;49.708;10.900;2023-04-01T02:48:22;1.70;;;0.60;;
21432;SDS011;18592;49.708;10.900;2023-04-01T02:50:23;2.08;;;0.57;;
21432;SDS011;18592;49.708;10.900;2023-04-01T02:52:25;2.58;;;0.65;;
21432;SDS011;18592;49.708;10.900;2023-04-01T02:54:30;2.70;;;0.90;;
21432;SDS011;18592;49.708;10.900;2023-04-01T02:56:32;1.90;;;0.60;;
21432;SDS011;18592;49.708;10.900;2023-04-01T02:58:34;1.85;;;0.60;;
21432;SDS011;18592;49.708;10.900;2023-04-01T03:00:35;2.22;;;0.90;;
21432;SDS011;18592;49.708;10.900;2023-04-01T03:02:38;1.25;;;0.50;;
21432;SDS011;18592;49.708;10.900;2023-04-01T03:04:40;2.90;;;0.73;;
21432;SDS011;18592;49.708;10.900;2023-04-01T03:06:42;1.50;;;0.60;;
21432;SDS011;18592;49.708;10.900;2023-04-01T03:08:44;2.63;;;0.63;;
21432;SDS011;18592;49.708;10.900;2023-04-01T03:10:46;2.45;;;0.68;;
21432;SDS011;18592;49.708;10.900;2023-04-01T03:12:47;1.52;;;0.60;;
21432;SDS011;18592;49.708;10.900;2023-04-01T03:14:49;1.92;;;0.80;;
21432;SDS011;18592;49.708;10.900;2023-04-01T03:16:51;1.85;;;0.50;;
21432;SDS011;18592;49.708;10.900;2023-04-01T03:18:53;1.45;;;0.50;;
21432;SDS011;18592;49.708;10.900;2023-04-01T03:21:11;2.20;;;0.60;;
21432;SDS011;18592;49.708;10.900;2023-04-01T03:23:17;1.48;;;0.63;;
21432;SDS011;18592;49.708;10.900;2023-04-01T03:25:20;2.67;;;0.70;;
21432;SDS011;18592;49.708;10.900;2023-04-01T03:27:25;1.80;;;0.50;;
21432;SDS011;18592;49.708;10.900;2023-04-01T03:29:27;2.05;;;0.85;;
21432;SDS011;18592;49.708;10.900;2023-04-01T03:31:28;1.88;;;0.75;;
21432;SDS011;18592;49.708;10.900;2023-04-01T03:33:32;2.00;;;0.60;;
21432;SDS011;18592;49.708;10.900;2023-04-01T03:35:33;3.00;;;0.90;;
21432;SDS011;18592;49.708;10.900;2023-04-01T03:37:37;2.58;;;0.70;;
21432;SDS011;18592;49.708;10.900;2023-04-01T03:39:39;4.60;;;0.90;;
21432;SDS011;18592;49.708;10.900;2023-04-01T03:41:41;3.25;;;0.75;;
21432;SDS011;18592;49.708;10.900;2023-04-01T03:43:43;1.13;;;0.50;;
21432;SDS011;18592;49.708;10.900;2023-04-01T03:45:46;1.45;;;0.55;;
21432;SDS011;18592;49.708;10.900;2023-04-01T03:47:52;3.08;;;0.75;;
21432;SDS011;18592;49.708;10.900;2023-04-01T03:49:54;1.70;;;0.47;;
21432;SDS011;18592;49.708;10.900;2023-04-01T03:51:57;1.85;;;0.68;;
21432;SDS011;18592;49.708;10.900;2023-04-01T03:53:59;3.05;;;0.77;;
21432;SDS011;18592;49.708;10.900;2023-04-01T03:56:03;1.60;;;0.68;;
21432;SDS011;18592;49.708;10.900;2023-04-01T03:58:11;2.67;;;0.90;;
21432;SDS011;18592;49.708;10.900;2023-04-01T04:00:16;1.45;;;0.50;;
21432;SDS011;18592;49.708;10.900;2023-04-01T04:02:21;3.05;;;0.70;;
21432;SDS011;18592;49.708;10.900;2023-04-01T04:04:24;2.10;;;0.55;;
21432;SDS011;18592;49.708;10.900;2023-04-01T04:06:26;1.70;;;0.63;;
21432;SDS011;18592;49.708;10.900;2023-04-01T04:08:28;4.18;;;1.02;;
21432;SDS011;18592;49.708;10.900;2023-04-01T04:10:29;3.33;;;0.82;;
21432;SDS011;18592;49.708;10.900;2023-04-01T04:12:31;1.65;;;0.60;;
21432;SDS011;18592;49.708;10.900;2023-04-01T04:14:36;2.55;;;0.60;;
21432;SDS011;18592;49.708;10.900;2023-04-01T04:16:43;1.45;;;0.57;;
21432;SDS011;18592;49.708;10.900;2023-04-01T04:18:45;2.42;;;0.50;;
21432;SDS011;18592;49.708;10.900;2023-04-01T04:20:47;2.25;;;0.80;;
21432;SDS011;18592;49.708;10.900;2023-04-01T04:22:52;1.48;;;0.52;;
21432;SDS011;18592;49.708;10.900;2023-04-01T04:24:53;2.55;;;0.90;;
21432;SDS011;18592;49.708;10.900;2023-04-01T04:26:59;1.30;;;0.50;;
21432;SDS011;18592;49.708;10.900;2023-04-01T04:29:01;2.35;;;0.85;;
21432;SDS011;18592;49.708;10.900;2023-04-01T04:31:04;1.80;;;0.70;;
21432;SDS011;18592;49.708;10.900;2023-04-01T04:33:08;1.75;;;0.70;;
21432;SDS011;18592;49.708;10.900;2023-04-01T04:35:10;2.22;;;0.57;;
21432;SDS011;18592;49.708;10.900;2023-04-01T04:37:12;2.30;;;0.70;;
21432;SDS011;18592;49.708;10.900;2023-04-01T04:39:16;1.75;;;0.60;;
21432;SDS011;18592;49.708;10.900;2023-04-01T04:41:19;2.38;;;0.80;;
21432;SDS011;18592;49.708;10.900;2023-04-01T04:43:24;1.73;;;0.50;;
21432;SDS011;18592;49.708;10.900;2023-04-01T04:45:26;1.20;;;0.47;;
21432;SDS011;18592;49.708;10.900;2023-04-01T04:47:30;1.63;;;0.50;;
21432;SDS011;18592;49.708;10.900;2023-04-01T04:49:32;1.83;;;0.60;;
21432;SDS011;18592;49.708;10.900;2023-04-01T04:51:42;2.95;;;0.80;;
21432;SDS011;18592;49.708;10.900;2023-04-01T04:53:45;2.70;;;0.60;;
21432;SDS011;18592;49.708;10.900;2023-04-01T04:55:49;1.13;;;0.60;;
21432;SDS011;18592;49.708;10.900;2023-04-01T04:58:09;2.00;;;0.60;;
21432;SDS011;18592;49.708;10.900;2023-04-01T05:00:16;1.77;;;0.70;;
21432;SDS011;18592;49.708;10.900;2023-04-01T05:02:25;2.47;;;0.70;;
21432;SDS011;18592;49.708;10.900;2023-04-01T05:04:27;1.10;;;0.70;;
21432;SDS011;18592;49.708;10.900;2023-04-01T05:06:28;2.47;;;0.70;;
21432;SDS011;18592;49.708;10.900;2023-04-01T05:08:33;1.90;;;0.50;;
21432;SDS011;18592;49.708;10.900;2023-04-01T05:10:35;1.60;;;0.50;;
21432;SDS011;18592;49.708;10.900;2023-04-01T05:12:38;2.47;;;0.70;;
21432;SDS011;18592;49.708;10.900;2023-04-01T05:14:42;0.60;;;0.40;;
21432;SDS011;18592;49.708;10.900;2023-04-01T05:16:44;1.33;;;0.40;;
21432;SDS011;18592;49.708;10.900;2023-04-01T05:18:46;1.05;;;0.47;;
21432;SDS011;18592;49.708;10.900;2023-04-01T05:20:50;1.15;;;0.38;;
21432;SDS011;18592;49.708;10.900;2023-04-01T05:22:56;1.35;;;0.55;;
21432;SDS011;18592;49.708;10.900;2023-04-01T05:24:58;1.13;;;0.50;;
21432;SDS011;18592;49.708;10.900;2023-04-01T05:27:01;1.75;;;0.55;;
21432;SDS011;18592;49.708;10.900;2023-04-01T05:29:04;2.13;;;0.70;;
21432;SDS011;18592;49.708;10.900;2023-04-01T05:31:07;2.03;;;0.60;;
21432;SDS011;18592;49.708;10.900;2023-04-01T05:33:13;1.15;;;0.50;;
21432;SDS011;18592;49.708;10.900;2023-04-01T05:35:15;2.00;;;0.55;;
21432;SDS011;18592;49.708;10.900;2023-04-01T05:37:17;1.65;;;0.60;;
21432;SDS011;18592;49.708;10.900;2023-04-01T05:39:19;0.98;;;0.50;;
21432;SDS011;18592;49.708;10.900;2023-04-01T05:41:24;1.35;;;0.70;;
21432;SDS011;18592;49.708;10.900;2023-04-01T05:43:25;1.67;;;0.50;;
21432;SDS011;18592;49.708;10.900;2023-04-01T05:45:28;1.88;;;0.50;;
21432;SDS011;18592;49.708;10.900;2023-04-01T05:47:45;2.17;;;0.65;;
21432;SDS011;18592;49.708;10.900;2023-04-01T05:49:47;1.67;;;0.70;;
21432;SDS011;18592;49.708;10.900;2023-04-01T05:51:52;1.70;;;0.55;;
21432;SDS011;18592;49.708;10.900;2023-04-01T05:53:54;2.88;;;0.60;;
21432;SDS011;18592;49.708;10.900;2023-04-01T05:56:01;2.15;;;0.60;;
21432;SDS011;18592;49.708;10.900;2023-04-01T05:58:11;0.75;;;0.40;;
21432;SDS011;18592;49.708;10.900;2023-04-01T06:00:15;2.88;;;0.80;;
21432;SDS011;18592;49.708;10.900;2023-04-01T06:02:17;1.88;;;0.50;;
21432;SDS011;18592;49.708;10.900;2023-04-01T06:04:21;1.35;;;0.38;;
21432;SDS011;18592;49.708;10.900;2023-04-01T06:06:26;1.65;;;0.40;;
21432;SDS011;18592;49.708;10.900;2023-04-01T06:08:37;1.83;;;0.52;;
21432;SDS011;18592;49.708;10.900;2023-04-01T06:10:50;1.02;;;0.50;;
21432;SDS011;18592;49.708;10.900;2023-04-01T06:13:00;1.00;;;0.40;;
21432;SDS011;18592;49.708;10.900;2023-04-01T06:15:35;0.90;;;0.40;;
21432;SDS011;18592;49.708;10.900;2023-04-01T06:20:21;0.85;;;0.43;;
21432;SDS011;18592;49.708;10.900;2023-04-01T06:27:25;1.00;;;0.55;;
21432;SDS011;18592;49.708;10.900;2023-04-01T06:32:22;3.08;;;0.60;;
21432;SDS011;18592;49.708;10.900;2023-04-01T06:38:05;2.08;;;0.50;;
21432;SDS011;18592;49.708;10.900;2023-04-01T06:45:27;1.00;;;0.45;;
21432;SDS011;18592;49.708;10.900;2023-04-01T06:50:43;0.68;;;0.35;;
21432;SDS011;18592;49.708;10.900;2023-04-01T06:53:31;1.02;;;0.52;;
21432;SDS011;18592;49.708;10.900;2023-04-01T06:56:10;1.85;;;0.40;;
21432;SDS011;18592;49.708;10.900;2023-04-01T06:58:36;0.60;;;0.40;;
21432;SDS011;18592;49.708;10.900;2023-04-01T07:00:44;0.80;;;0.22;;
21432;SDS011;18592;49.708;10.900;2023-04-01T07:03:38;0.38;;;0.30;;
21432;SDS011;18592;49.708;10.900;2023-04-01T07:05:29;1.40;;;0.45;;
21432;SDS011;18592;49.708;10.900;2023-04-01T07:07:37;0.63;;;0.40;;
21432;SDS011;18592;49.708;10.900;2023-04-01T07:09:50;1.65;;;0.60;;
21432;SDS011;18592;49.708;10.900;2023-04-01T07:12:09;0.73;;;0.38;;
21432;SDS011;18592;49.708;10.900;2023-04-01T07:14:53;1.63;;;0.50;;
21432;SDS011;18592;49.708;10.900;2023-04-01T07:16:59;0.40;;;0.40;;
21432;SDS011;18592;49.708;10.900;2023-04-01T07:23:59;1.92;;;0.50;;
21432;SDS011;18592;49.708;10.900;2023-04-01T07:26:19;0.85;;;0.63;;
21432;SDS011;18592;49.708;10.900;2023-04-01T07:28:39;1.83;;;0.77;;
21432;SDS011;18592;49.708;10.900;2023-04-01T07:31:13;1.52;;;0.52;;
21432;SDS011;18592;49.708;10.900;2023-04-01T07:35:44;1.20;;;0.50;;
21432;SDS011;18592;49.708;10.900;2023-04-01T07:38:15;1.50;;;0.40;;
21432;SDS011;18592;49.708;10.900;2023-04-01T07:50:10;0.70;;;0.32;;
21432;SDS011;18592;49.708;10.900;2023-04-01T07:52:25;0.90;;;0.40;;
21432;SDS011;18592;49.708;10.900;2023-04-01T07:54:39;1.48;;;0.57;;
21432;SDS011;18592;49.708;10.900;2023-04-01T07:56:57;1.25;;;0.50;;
21432;SDS011;18592;49.708;10.900;2023-04-01T07:59:28;0.77;;;0.35;;
21432;SDS011;18592;49.708;10.900;2023-04-01T08:06:24;1.38;;;0.50;;
21432;SDS011;18592;49.708;10.900;2023-04-01T08:08:36;1.05;;;0.45;;
21432;SDS011;18592;49.708;10.900;2023-04-01T08:13:56;0.52;;;0.40;;
21432;SDS011;18592;49.708;10.900;2023-04-01T08:16:31;0.40;;;0.35;;
21432;SDS011;18592;49.708;10.900;2023-04-01T08:23:26;1.15;;;0.30;;
21432;SDS011;18592;49.708;10.900;2023-04-01T08:25:34;0.85;;;0.32;;
21432;SDS011;18592;49.708;10.900;2023-04-01T08:27:44;0.30;;;0.20;;
21432;SDS011;18592;49.708;10.900;2023-04-01T08:29:55;1.95;;;0.20;;
21432;SDS011;18592;49.708;10.900;2023-04-01T08:32:09;2.60;;;0.50;;
21432;SDS011;18592;49.708;10.900;2023-04-01T08:34:15;1.00;;;0.40;;
21432;SDS011;18592;49.708;10.900;2023-04-01T08:36:31;0.98;;;0.60;;
21432;SDS011;18592;49.708;10.900;2023-04-01T08:41:06;1.05;;;0.50;;
21432;SDS011;18592;49.708;10.900;2023-04-01T08:44:31;0.65;;;0.40;;
21432;SDS011;18592;49.708;10.900;2023-04-01T08:51:53;1.30;;;0.60;;
21432;SDS011;18592;49.708;10.900;2023-04-01T08:54:17;0.95;;;0.60;;
21432;SDS011;18592;49.708;10.900;2023-04-01T08:56:40;1.90;;;1.00;;
21432;SDS011;18592;49.708;10.900;2023-04-01T08:59:08;1.67;;;1.13;;
21432;SDS011;18592;49.708;10.900;2023-04-01T09:06:33;2.88;;;1.63;;
21432;SDS011;18592;49.708;10.900;2023-04-01T09:11:12;1.58;;;1.10;;
21432;SDS011;18592;49.708;10.900;2023-04-01T09:16:16;2.92;;;1.40;;
21432;SDS011;18592;49.708;10.900;2023-04-01T09:18:35;1.63;;;1.33;;
21432;SDS011;18592;49.708;10.900;2023-04-01T09:25:51;1.88;;;1.50;;
21432;SDS011;18592;49.708;10.900;2023-04-01T09:28:10;1.55;;;1.20;;
21432;SDS011;18592;49.708;10.900;2023-04-01T09:35:07;1.88;;;1.48;;
21432;SDS011;18592;49.708;10.900;2023-04-01T09:37:30;2.10;;;1.40;;
21432;SDS011;18592;49.708;10.900;2023-04-01T09:39:44;1.30;;;1.00;;
21432;SDS011;18592;49.708;10.900;2023-04-01T09:47:16;1.60;;;0.98;;
21432;SDS011;18592;49.708;10.900;2023-04-01T09:49:55;2.45;;;1.00;;
21432;SDS011;18592;49.708;10.900;2023-04-01T10:07:42;4.63;;;2.80;;
21432;SDS011;18592;49.708;10.900;2023-04-01T10:12:37;3.47;;;2.80;;
21432;SDS011;18592;49.708;10.900;2023-04-01T10:18:04;1.88;;;1.38;;
21432;SDS011;18592;49.708;10.900;2023-04-01T10:27:41;0.60;;;0.60;;
21432;SDS011;18592;49.708;10.900;2023-04-01T10:32:45;0.60;;;0.60;;
21432;SDS011;18592;49.708;10.900;2023-04-01T10:38:02;0.65;;;0.60;;
21432;SDS011;18592;49.708;10.900;2023-04-01T10:41:04;3.13;;;0.95;;
21432;SDS011;18592;49.708;10.900;2023-04-01T10:53:32;4.13;;;2.80;;
21432;SDS011;18592;49.708;10.900;2023-04-01T10:59:02;3.30;;;2.38;;
21432;SDS011;18592;49.708;10.900;2023-04-01T11:17:18;5.72;;;2.97;;
21432;SDS011;18592;49.708;10.900;2023-04-01T11:19:35;9.95;;;5.05;;
21432;SDS011;18592;49.708;10.900;2023-04-01T11:22:19;11.30;;;5.63;;
21432;SDS011;18592;49.708;10.900;2023-04-01T11:32:06;2.88;;;1.80;;
21432;SDS011;18592;49.708;10.900;2023-04-01T11:34:31;1.42;;;1.27;;
21432;SDS011;18592;49.708;10.900;2023-04-01T11:52:05;0.80;;;0.80;;
21432;SDS011;18592;49.708;10.900;2023-04-01T11:54:48;1.20;;;0.85;;
21432;SDS011;18592;49.708;10.900;2023-04-01T11:59:28;1.75;;;1.40;;
21432;SDS011;18592;49.708;10.900;2023-04-01T12:07:02;2.10;;;1.45;;
21432;SDS011;18592;49.708;10.900;2023-04-01T12:19:48;0.90;;;0.70;;
21432;SDS011;18592;49.708;10.900;2023-04-01T12:29:49;1.10;;;0.70;;
21432;SDS011;18592;49.708;10.900;2023-04-01T12:35:02;1.17;;;0.80;;
21432;SDS011;18592;49.708;10.900;2023-04-01T12:39:44;1.10;;;0.90;;
21432;SDS011;18592;49.708;10.900;2023-04-01T12:42:11;1.00;;;0.70;;
21432;SDS011;18592;49.708;10.900;2023-04-01T12:44:39;1.63;;;0.88;;
21432;SDS011;18592;49.708;10.900;2023-04-01T12:52:13;0.47;;;0.43;;
21432;SDS011;18592;49.708;10.900;2023-04-01T12:54:33;0.65;;;0.50;;
21432;SDS011;18592;49.708;10.900;2023-04-01T12:59:24;1.38;;;0.60;;
21432;SDS011;18592;49.708;10.900;2023-04-01T13:09:31;0.90;;;0.70;;
21432;SDS011;18592;49.708;10.900;2023-04-01T13:18:49;0.75;;;0.50;;
21432;SDS011;18592;49.708;10.900;2023-04-01T13:25:57;0.45;;;0.40;;
21432;SDS011;18592;49.708;10.900;2023-04-01T13:28:19;0.40;;;0.40;;
21432;SDS011;18592;49.708;10.900;2023-04-01T13:35:23;0.30;;;0.10;;
21432;SDS011;18592;49.708;10.900;2023-04-01T13:37:42;0.30;;;0.28;;
21432;SDS011;18592;49.708;10.900;2023-04-01T13:40:20;0.22;;;0.22;;
21432;SDS011;18592;49.708;10.900;2023-04-01T13:42:28;2.08;;;1.65;;
21432;SDS011;18592;49.708;10.900;2023-04-01T13:46:48;4.45;;;3.20;;
21432;SDS011;18592;49.708;10.900;2023-04-01T13:54:23;1.90;;;1.30;;
21432;SDS011;18592;49.708;10.900;2023-04-01T13:56:33;1.58;;;1.20;;
21432;SDS011;18592;49.708;10.900;2023-04-01T14:06:11;0.47;;;0.47;;
21432;SDS011;18592;49.708;10.900;2023-04-01T14:13:17;0.55;;;0.40;;
21432;SDS011;18592;49.708;10.900;2023-04-01T14:15:41;0.30;;;0.30;;
21432;SDS011;18592;49.708;10.900;2023-04-01T14:18:10;0.50;;;0.30;;
21432;SDS011;18592;49.708;10.900;2023-04-01T14:24:53;1.90;;;1.13;;
21432;SDS011;18592;49.708;10.900;2023-04-01T14:27:35;0.70;;;0.70;;
21432;SDS011;18592;49.708;10.900;2023-04-01T14:32:13;1.52;;;0.70;;
21432;SDS011;18592;49.708;10.900;2023-04-01T14:34:37;0.70;;;0.70;;
21432;SDS011;18592;49.708;10.900;2023-04-01T14:46:26;0.60;;;0.60;;
21432;SDS011;18592;49.708;10.900;2023-04-01T14:51:16;0.70;;;0.70;;
21432;SDS011;18592;49.708;10.900;2023-04-01T14:57:39;0.47;;;0.47;;
21432;SDS011;18592;49.708;10.900;2023-04-01T14:59:48;0.50;;;0.50;;
21432;SDS011;18592;49.708;10.900;2023-04-01T15:01:56;0.65;;;0.40;;
21432;SDS011;18592;49.708;10.900;2023-04-01T15:06:47;0.52;;;0.50;;
21432;SDS011;18592;49.708;10.900;2023-04-01T15:09:14;0.30;;;0.30;;
21432;SDS011;18592;49.708;10.900;2023-04-01T15:13:39;1.00;;;0.60;;
21432;SDS011;18592;49.708;10.900;2023-04-01T15:16:08;1.10;;;0.50;;
21432;SDS011;18592;49.708;10.900;2023-04-01T15:18:27;0.82;;;0.60;;
21432;SDS011;18592;49.708;10.900;2023-04-01T15:23:01;1.40;;;1.00;;
21432;SDS011;18592;49.708;10.900;2023-04-01T15:25:58;0.88;;;0.68;;
21432;SDS011;18592;49.708;10.900;2023-04-01T15:27:47;1.40;;;0.98;;
21432;SDS011;18592;49.708;10.900;2023-04-01T15:34:48;0.68;;;0.68;;
21432;SDS011;18592;49.708;10.900;2023-04-01T15:36:57;1.67;;;0.60;;
21432;SDS011;18592;49.708;10.900;2023-04-01T15:43:33;1.20;;;0.98;;
21432;SDS011;18592;49.708;10.900;2023-04-01T15:55:31;0.80;;;0.80;;
21432;SDS011;18592;49.708;10.900;2023-04-01T15:57:47;1.00;;;0.90;;
21432;SDS011;18592;49.708;10.900;2023-04-01T16:04:46;0.98;;;0.73;;
21432;SDS011;18592;49.708;10.900;2023-04-01T16:07:02;0.45;;;0.43;;
21432;SDS011;18592;49.708;10.900;2023-04-01T16:13:59;4.40;;;3.25;;
21432;SDS011;18592;49.708;10.900;2023-04-01T16:16:46;3.38;;;2.60;;
21432;SDS011;18592;49.708;10.900;2023-04-01T16:18:58;2.90;;;2.20;;
21432;SDS011;18592;49.708;10.900;2023-04-01T16:23:40;2.03;;;1.70;;
21432;SDS011;18592;49.708;10.900;2023-04-01T16:25:44;1.60;;;1.25;;
21432;SDS011;18592;49.708;10.900;2023-04-01T16:34:34;1.88;;;1.60;;
21432;SDS011;18592;49.708;10.900;2023-04-01T16:36:47;1.95;;;1.30;;
21432;SDS011;18592;49.708;10.900;2023-04-01T16:41:24;1.00;;;0.90;;
21432;SDS011;18592;49.708;10.900;2023-04-01T16:43:50;0.80;;;0.80;;
21432;SDS011;18592;49.708;10.900;2023-04-01T16:51:04;1.13;;;0.52;;
21432;SDS011;18592;49.708;10.900;2023-04-01T16:55:18;0.50;;;0.50;;
21432;SDS011;18592;49.708;10.900;2023-04-01T17:02:26;0.40;;;0.40;;
21432;SDS011;18592;49.708;10.900;2023-04-01T17:11:31;0.40;;;0.40;;
21432;SDS011;18592;49.708;10.900;2023-04-01T17:13:50;0.50;;;0.30;;
21432;SDS011;18592;49.708;10.900;2023-04-01T17:18:14;1.05;;;0.60;;
21432;SDS011;18592;49.708;10.900;2023-04-01T17:27:57;1.80;;;1.40;;
21432;SDS011;18592;49.708;10.900;2023-04-01T17:35:18;1.27;;;0.90;;
21432;SDS011;18592;49.708;10.900;2023-04-01T17:42:33;0.60;;;0.50;;
21432;SDS011;18592;49.708;10.900;2023-04-01T17:51:43;0.73;;;0.40;;
21432;SDS011;18592;49.708;10.900;2023-04-01T17:56:23;0.90;;;0.60;;
21432;SDS011;18592;49.708;10.900;2023-04-01T17:58:59;0.50;;;0.40;;
21432;SDS011;18592;49.708;10.900;2023-04-01T18:03:54;0.75;;;0.40;;
21432;SDS011;18592;49.708;10.900;2023-04-01T18:13:14;10.30;;;6.07;;
21432;SDS011;18592;49.708;10.900;2023-04-01T18:17:55;12.73;;;7.53;;
21432;SDS011;18592;49.708;10.900;2023-04-01T18:27:33;3.97;;;2.50;;
21432;SDS011;18592;49.708;10.900;2023-04-01T18:29:41;2.80;;;1.73;;
21432;SDS011;18592;49.708;10.900;2023-04-01T18:31:54;1.75;;;1.40;;
21432;SDS011;18592;49.708;10.900;2023-04-01T18:34:10;1.40;;;1.10;;
21432;SDS011;18592;49.708;10.900;2023-04-01T18:38:48;0.82;;;0.60;;
21432;SDS011;18592;49.708;10.900;2023-04-01T18:41:07;1.45;;;0.90;;
21432;SDS011;18592;49.708;10.900;2023-04-01T18:50:39;2.20;;;1.83;;
21432;SDS011;18592;49.708;10.900;2023-04-01T18:52:48;2.45;;;1.90;;
21432;SDS011;18592;49.708;10.900;2023-04-01T18:57:15;1.80;;;1.48;;
21432;SDS011;18592;49.708;10.900;2023-04-01T19:02:14;1.08;;;0.93;;
21432;SDS011;18592;49.708;10.900;2023-04-01T19:04:42;1.17;;;0.85;;
21432;SDS011;18592;49.708;10.900;2023-04-01T19:06:51;1.27;;;0.85;;
21432;SDS011;18592;49.708;10.900;2023-04-01T19:08:59;1.10;;;0.60;;
21432;SDS011;18592;49.708;10.900;2023-04-01T19:11:32;0.70;;;0.70;;
21432;SDS011;18592;49.708;10.900;2023-04-01T19:21:10;0.68;;;0.50;;
21432;SDS011;18592;49.708;10.900;2023-04-01T19:23:23;0.50;;;0.50;;
21432;SDS011;18592;49.708;10.900;2023-04-01T19:27:53;0.40;;;0.40;;
21432;SDS011;18592;49.708;10.900;2023-04-01T19:32:32;1.70;;;0.50;;
21432;SDS011;18592;49.708;10.900;2023-04-01T19:36:59;0.73;;;0.57;;
21432;SDS011;18592;49.708;10.900;2023-04-01T19:39:19;0.40;;;0.40;;
21432;SDS011;18592;49.708;10.900;2023-04-01T19:41:46;0.57;;;0.30;;
21432;SDS011;18592;49.708;10.900;2023-04-01T19:46:33;1.52;;;0.60;;
21432;SDS011;18592;49.708;10.900;2023-04-01T19:51:00;0.82;;;0.50;;
21432;SDS011;18592;49.708;10.900;2023-04-01T19:55:44;1.05;;;0.60;;
21432;SDS011;18592;49.708;10.900;2023-04-01T19:57:52;1.73;;;0.50;;
21432;SDS011;18592;49.708;10.900;2023-04-01T20:02:26;0.55;;;0.50;;
21432;SDS011;18592;49.708;10.900;2023-04-01T20:04:42;1.52;;;0.50;;
21432;SDS011;18592;49.708;10.900;2023-04-01T20:07:16;0.40;;;0.40;;
21432;SDS011;18592;49.708;10.900;2023-04-01T20:11:56;1.05;;;0.60;;
21432;SDS011;18592;49.708;10.900;2023-04-01T20:14:09;1.83;;;1.00;;
21432;SDS011;18592;49.708;10.900;2023-04-01T20:16:23;1.75;;;1.20;;
21432;SDS011;18592;49.708;10.900;2023-04-01T20:18:54;2.40;;;1.30;;
21432;SDS011;18592;49.708;10.900;2023-04-01T20:21:00;2.00;;;1.33;;
21432;SDS011;18592;49.708;10.900;2023-04-01T20:27:31;1.88;;;1.13;;
21432;SDS011;18592;49.708;10.900;2023-04-01T20:39:26;4.07;;;1.85;;
21432;SDS011;18592;49.708;10.900;2023-04-01T20:44:47;3.60;;;2.20;;
21432;SDS011;18592;49.708;10.900;2023-04-01T20:46:54;2.35;;;1.70;;